OOCL Nagoya — VRFX8 — position and weather

sailwx.info

Track history (hours):
 
Tides and Currents Weather Stations Pressure Air Temp Water Temp Dewpoint Dewpoint Depression Visibility Wind Speed Wind Dir Waves Ship Positions

OOCL Nagoya

Last reported at 2016-Jul-27 02:33 UTC. Time now 2016-Jul-27 23:01 UTC.
Position N 22°09' E 113°50'.

Length 261 m; draft 11.3 m.

Type: Cargo ship. MMSI: 477627900.

Date/timePositionNaut miles runAvg speedWind from/ knotsBaromVisibWave heightAir tempDewpointWater temp
2016-Jul-27 02:33N 22°09' E 113°50'1312.7
2016-Jul-27 01:33N 22°21' E 113°49'7 5.6
2016-Jul-27 00:18N 22°27' E 113°54'0 0.0
2016-Jul-26 23:30N 22°27' E 113°54'0 0.0
2016-Jul-26 22:30N 22°27' E 113°54'0 0.0
2016-Jul-26 21:30N 22°27' E 113°54'0 0.0
2016-Jul-26 20:24N 22°27' E 113°54'0 0.0
2016-Jul-26 19:30N 22°27' E 113°54'0 0.0
2016-Jul-26 18:30N 22°27' E 113°54'0 0.0
2016-Jul-26 17:30N 22°27' E 113°54'0 0.0
2016-Jul-26 16:30N 22°27' E 113°54'0 0.0
2016-Jul-26 15:24N 22°27' E 113°54'0 0.0
2016-Jul-26 14:30N 22°27' E 113°54'0 0.0
2016-Jul-26 13:18N 22°27' E 113°54'0 0.0
2016-Jul-26 12:30N 22°27' E 113°54'0 0.0
2016-Jul-26 11:24N 22°27' E 113°54'4 4.5
2016-Jul-26 10:33N 22°23' E 113°54'11 9.4
2016-Jul-26 09:25N 22°20' E 114°05'2 0.2
2016-Jul-25 22:30N 22°21' E 114°07'0 0.0
2016-Jul-25 20:23N 22°21' E 114°07'0 0.0
2016-Jul-25 18:24N 22°21' E 114°07'2 2.3
2016-Jul-25 17:33N 22°19' E 114°06'1510.4
2016-Jul-25 16:07N 22°08' E 114°17'815.0
2016-Jul-25 15:33N 22°09' E 114°27'1615.4
2016-Jul-25 14:29N 22°12' E 114°44'14115.6
2016-Jul-25 05:26N 22°19' E 117°17'14314.2
2016-Jul-24 19:22N 22°31' E 119°50'1213.9
2016-Jul-24 18:29N 22°32' E 120°03'1313.9
2016-Jul-24 17:33N 22°33' E 120°17'2 1.7
2016-Jul-24 16:32N 22°34' E 120°18'0 0.0
2016-Jul-24 15:32N 22°34' E 120°18'0 0.0
2016-Jul-24 14:32N 22°34' E 120°18'0 0.0
2016-Jul-24 13:08N 22°34' E 120°18'0 0.0
2016-Jul-24 12:32N 22°34' E 120°18'0 0.0
2016-Jul-24 11:32N 22°34' E 120°18'0 0.0
2016-Jul-24 10:08N 22°34' E 120°18'0 0.0
2016-Jul-24 09:32N 22°34' E 120°18'0 0.0
2016-Jul-24 08:32N 22°34' E 120°18'0 0.0
2016-Jul-24 07:33N 22°34' E 120°18'6 5.5
2016-Jul-24 06:33N 22°32' E 120°13'1515.5
2016-Jul-24 05:33N 22°46' E 120°05'6515.2
2016-Jul-24 01:17N 23°50' E 119°56'1114.5
2016-Jul-24 00:33N 23°60' E 120°01'3215.8
2016-Jul-23 22:31N 24°29' E 120°15'2016.2
2016-Jul-23 21:16N 24°48' E 120°24'1816.1
2016-Jul-23 20:09N 25°02' E 120°36'4015.5
2016-Jul-23 17:33N 25°31' E 121°06'  
2016-Jul-21 10:07N 33°51' E 134°54'916.2
2016-Jul-21 09:33N 34°01' E 134°55'1514.7
2016-Jul-21 08:33N 34°15' E 134°58'1817.7
2016-Jul-21 07:33N 34°29' E 135°10'1110.6
2016-Jul-21 06:33N 34°40' E 135°14'0 0.0
2016-Jul-21 05:32N 34°39' E 135°14'0 0.0
2016-Jul-21 04:14N 34°39' E 135°14'0 0.0
2016-Jul-21 03:32N 34°39' E 135°14'0 0.0
2016-Jul-21 02:32N 34°39' E 135°14'0 0.0
2016-Jul-21 01:32N 34°39' E 135°14'0 0.0
2016-Jul-21 00:26N 34°40' E 135°14'0 0.0
2016-Jul-20 23:32N 34°39' E 135°14'1 1.5
2016-Jul-20 22:33N 34°39' E 135°16'1313.1
2016-Jul-20 21:33N 34°27' E 135°08'1616.4
2016-Jul-20 20:33N 34°13' E 134°59'10 9.8
2016-Jul-20 19:33N 34°03' E 134°59'236 4.9
2016-Jul-18 19:13N 35°03' E 139°37'711.2
2016-Jul-18 18:33N 35°08' E 139°44'1110.9
2016-Jul-18 17:33N 35°19' E 139°44'1313.3
2016-Jul-18 16:34N 35°30' E 139°51'7 6.6
2016-Jul-18 15:33N 35°36' E 139°47'0 0.0
2016-Jul-18 14:33N 35°36' E 139°47'0 0.0
2016-Jul-18 13:33N 35°36' E 139°47'0 0.0
2016-Jul-18 12:33N 35°36' E 139°47'0 0.0
2016-Jul-18 11:33N 35°36' E 139°47'0 0.0
2016-Jul-18 10:33N 35°36' E 139°47'0 0.0
2016-Jul-18 09:33N 35°36' E 139°47'0 0.0
2016-Jul-18 08:33N 35°36' E 139°47'0 0.0
2016-Jul-18 07:33N 35°36' E 139°47'0 0.0
2016-Jul-18 06:33N 35°36' E 139°47'0 0.0
2016-Jul-18 05:33N 35°36' E 139°47'0 0.0
2016-Jul-18 04:33N 35°36' E 139°47'0 0.0
2016-Jul-18 03:33N 35°36' E 139°47'8 7.8
2016-Jul-18 02:33N 35°30' E 139°52'1313.1
2016-Jul-18 01:33N 35°18' E 139°44'1010.4
2016-Jul-18 00:33N 35°08' E 139°46'1111.2
2016-Jul-17 23:33N 34°59' E 139°36'1514.5
2016-Jul-17 22:32N 34°52' E 139°21'  
Track history (hours):
 
Tides and Currents Weather Stations Pressure Air Temp Water Temp Dewpoint Dewpoint Depression Visibility Wind Speed Wind Dir Waves Ship Positions

OOCL Nagoya

Last reported at 2016-Jul-27 02:33 UTC. Time now 2016-Jul-27 23:01 UTC.
Position N 22°09' E 113°50'.

Length 261 m; draft 11.3 m.

Type: Cargo ship. MMSI: 477627900.

Date/timePositionNaut miles runAvg speedWind from/ knotsBaromVisibWave heightAir tempDewpointWater temp
2016-Jul-27 02:33N 22°09' E 113°50'1312.7
2016-Jul-27 01:33N 22°21' E 113°49'7 5.6
2016-Jul-27 00:18N 22°27' E 113°54'0 0.0
2016-Jul-26 23:30N 22°27' E 113°54'0 0.0
2016-Jul-26 22:30N 22°27' E 113°54'0 0.0
2016-Jul-26 21:30N 22°27' E 113°54'0 0.0
2016-Jul-26 20:24N 22°27' E 113°54'0 0.0
2016-Jul-26 19:30N 22°27' E 113°54'0 0.0
2016-Jul-26 18:30N 22°27' E 113°54'0 0.0
2016-Jul-26 17:30N 22°27' E 113°54'0 0.0
2016-Jul-26 16:30N 22°27' E 113°54'0 0.0
2016-Jul-26 15:24N 22°27' E 113°54'0 0.0
2016-Jul-26 14:30N 22°27' E 113°54'0 0.0
2016-Jul-26 13:18N 22°27' E 113°54'0 0.0
2016-Jul-26 12:30N 22°27' E 113°54'0 0.0
2016-Jul-26 11:24N 22°27' E 113°54'4 4.5
2016-Jul-26 10:33N 22°23' E 113°54'11 9.4
2016-Jul-26 09:25N 22°20' E 114°05'2 0.2
2016-Jul-25 22:30N 22°21' E 114°07'0 0.0
2016-Jul-25 20:23N 22°21' E 114°07'0 0.0
2016-Jul-25 18:24N 22°21' E 114°07'2 2.3
2016-Jul-25 17:33N 22°19' E 114°06'1510.4
2016-Jul-25 16:07N 22°08' E 114°17'815.0
2016-Jul-25 15:33N 22°09' E 114°27'1615.4
2016-Jul-25 14:29N 22°12' E 114°44'14115.6
2016-Jul-25 05:26N 22°19' E 117°17'14314.2
2016-Jul-24 19:22N 22°31' E 119°50'1213.9
2016-Jul-24 18:29N 22°32' E 120°03'1313.9
2016-Jul-24 17:33N 22°33' E 120°17'2 1.7
2016-Jul-24 16:32N 22°34' E 120°18'0 0.0
2016-Jul-24 15:32N 22°34' E 120°18'0 0.0
2016-Jul-24 14:32N 22°34' E 120°18'0 0.0
2016-Jul-24 13:08N 22°34' E 120°18'0 0.0
2016-Jul-24 12:32N 22°34' E 120°18'0 0.0
2016-Jul-24 11:32N 22°34' E 120°18'0 0.0
2016-Jul-24 10:08N 22°34' E 120°18'0 0.0
2016-Jul-24 09:32N 22°34' E 120°18'0 0.0
2016-Jul-24 08:32N 22°34' E 120°18'0 0.0
2016-Jul-24 07:33N 22°34' E 120°18'6 5.5
2016-Jul-24 06:33N 22°32' E 120°13'1515.5
2016-Jul-24 05:33N 22°46' E 120°05'6515.2
2016-Jul-24 01:17N 23°50' E 119°56'1114.5
2016-Jul-24 00:33N 23°60' E 120°01'3215.8
2016-Jul-23 22:31N 24°29' E 120°15'2016.2
2016-Jul-23 21:16N 24°48' E 120°24'1816.1
2016-Jul-23 20:09N 25°02' E 120°36'4015.5
2016-Jul-23 17:33N 25°31' E 121°06'  
2016-Jul-21 10:07N 33°51' E 134°54'916.2
2016-Jul-21 09:33N 34°01' E 134°55'1514.7
2016-Jul-21 08:33N 34°15' E 134°58'1817.7
2016-Jul-21 07:33N 34°29' E 135°10'1110.6
2016-Jul-21 06:33N 34°40' E 135°14'0 0.0
2016-Jul-21 05:32N 34°39' E 135°14'0 0.0
2016-Jul-21 04:14N 34°39' E 135°14'0 0.0
2016-Jul-21 03:32N 34°39' E 135°14'0 0.0
2016-Jul-21 02:32N 34°39' E 135°14'0 0.0
2016-Jul-21 01:32N 34°39' E 135°14'0 0.0
2016-Jul-21 00:26N 34°40' E 135°14'0 0.0
2016-Jul-20 23:32N 34°39' E 135°14'1 1.5
2016-Jul-20 22:33N 34°39' E 135°16'1313.1
2016-Jul-20 21:33N 34°27' E 135°08'1616.4
2016-Jul-20 20:33N 34°13' E 134°59'10 9.8
2016-Jul-20 19:33N 34°03' E 134°59'236 4.9
2016-Jul-18 19:13N 35°03' E 139°37'711.2
2016-Jul-18 18:33N 35°08' E 139°44'1110.9
2016-Jul-18 17:33N 35°19' E 139°44'1313.3
2016-Jul-18 16:34N 35°30' E 139°51'7 6.6
2016-Jul-18 15:33N 35°36' E 139°47'0 0.0
2016-Jul-18 14:33N 35°36' E 139°47'0 0.0
2016-Jul-18 13:33N 35°36' E 139°47'0 0.0
2016-Jul-18 12:33N 35°36' E 139°47'0 0.0
2016-Jul-18 11:33N 35°36' E 139°47'0 0.0
2016-Jul-18 10:33N 35°36' E 139°47'0 0.0
2016-Jul-18 09:33N 35°36' E 139°47'0 0.0
2016-Jul-18 08:33N 35°36' E 139°47'0 0.0
2016-Jul-18 07:33N 35°36' E 139°47'0 0.0
2016-Jul-18 06:33N 35°36' E 139°47'0 0.0
2016-Jul-18 05:33N 35°36' E 139°47'0 0.0
2016-Jul-18 04:33N 35°36' E 139°47'0 0.0
2016-Jul-18 03:33N 35°36' E 139°47'8 7.8
2016-Jul-18 02:33N 35°30' E 139°52'1313.1
2016-Jul-18 01:33N 35°18' E 139°44'1010.4
2016-Jul-18 00:33N 35°08' E 139°46'1111.2
2016-Jul-17 23:33N 34°59' E 139°36'1514.5
2016-Jul-17 22:32N 34°52' E 139°21'  

Dump ship's entire track history